createdAt,value
2023-03-01T00:01:40.779Z,12.60
2023-03-01T00:04:09.371Z,12.67
2023-03-01T00:06:38.376Z,12.10
2023-03-01T00:09:06.373Z,12.80
2023-03-01T00:11:35.642Z,12.20
2023-03-01T00:14:05.760Z,12.23
2023-03-01T00:16:40.018Z,12.37
2023-03-01T00:19:10.621Z,12.53
2023-03-01T00:21:39.800Z,12.13
2023-03-01T00:24:11.351Z,13.07
2023-03-01T00:26:39.367Z,12.23
2023-03-01T00:29:07.616Z,13.17
2023-03-01T00:31:38.447Z,11.17
2023-03-01T00:34:08.349Z,12.67
2023-03-01T00:36:41.369Z,12.50
2023-03-01T00:39:15.703Z,11.77
2023-03-01T00:41:46.163Z,11.57
2023-03-01T00:44:16.005Z,12.23
2023-03-01T00:46:45.784Z,11.97
2023-03-01T00:49:15.615Z,12.10
2023-03-01T00:51:44.074Z,12.40
2023-03-01T00:54:12.717Z,11.80
2023-03-01T00:56:42.095Z,12.77
2023-03-01T00:59:09.874Z,11.70
2023-03-01T01:01:38.507Z,12.00
2023-03-01T01:04:10.944Z,12.73
2023-03-01T01:06:43.363Z,12.00
2023-03-01T01:09:18.392Z,12.40
2023-03-01T01:11:49.164Z,12.47
2023-03-01T01:14:19.067Z,13.13
2023-03-01T01:16:46.956Z,12.10
2023-03-01T01:19:17.314Z,12.03
2023-03-01T01:21:46.030Z,12.67
2023-03-01T01:24:15.165Z,12.33
2023-03-01T01:26:44.236Z,11.90
2023-03-01T01:29:12.249Z,12.50
2023-03-01T01:31:42.885Z,12.30
2023-03-01T01:34:19.313Z,13.17
2023-03-01T01:36:50.851Z,12.27
2023-03-01T01:39:19.225Z,13.30
2023-03-01T01:41:47.792Z,12.53
2023-03-01T01:44:20.041Z,13.53
2023-03-01T01:46:52.446Z,13.03
2023-03-01T01:49:27.665Z,12.43
2023-03-01T01:52:02.910Z,13.53
2023-03-01T01:54:37.646Z,14.90
2023-03-01T01:57:09.493Z,12.07
2023-03-01T01:59:38.986Z,12.53
2023-03-01T02:02:08.499Z,12.57
2023-03-01T02:04:37.973Z,12.30
2023-03-01T02:07:11.015Z,13.53
2023-03-01T02:09:39.271Z,12.63
2023-03-01T02:12:07.951Z,14.40
2023-03-01T02:14:36.672Z,12.70
2023-03-01T02:17:05.110Z,12.87
2023-03-01T02:19:51.129Z,13.40
2023-03-01T02:22:26.234Z,13.27
2023-03-01T02:25:04.830Z,13.83
2023-03-01T02:27:41.620Z,13.73
2023-03-01T02:30:14.038Z,14.03
2023-03-01T02:32:42.776Z,13.60
2023-03-01T02:35:13.944Z,13.03
2023-03-01T02:37:43.388Z,13.53
2023-03-01T02:40:16.642Z,12.90
2023-03-01T02:42:51.377Z,13.60
2023-03-01T02:45:20.798Z,13.70
2023-03-01T02:47:48.743Z,13.70
2023-03-01T02:50:27.352Z,13.20
2023-03-01T02:53:03.852Z,12.67
2023-03-01T02:55:32.521Z,13.13
2023-03-01T02:58:04.066Z,13.80
2023-03-01T03:00:41.900Z,13.87
2023-03-01T03:03:11.579Z,12.80
2023-03-01T03:05:40.238Z,13.23
2023-03-01T03:08:08.682Z,13.77
2023-03-01T03:10:40.479Z,13.70
2023-03-01T03:13:10.466Z,14.00
2023-03-01T03:15:42.632Z,14.47
2023-03-01T03:18:14.606Z,13.20
2023-03-01T03:20:43.667Z,13.83
2023-03-01T03:23:12.841Z,13.93
2023-03-01T03:25:41.637Z,14.23
2023-03-01T03:28:11.637Z,12.70
2023-03-01T03:30:43.657Z,13.83
2023-03-01T03:33:15.461Z,13.33
2023-03-01T03:35:46.368Z,14.43
2023-03-01T03:38:20.528Z,13.87
2023-03-01T03:40:52.279Z,13.90
2023-03-01T03:43:22.632Z,14.07
2023-03-01T03:45:54.309Z,14.00
2023-03-01T03:48:24.184Z,13.97
2023-03-01T03:50:55.067Z,13.50
2023-03-01T03:53:25.611Z,14.07
2023-03-01T03:55:53.839Z,13.60
2023-03-01T03:58:23.750Z,15.40
2023-03-01T04:00:54.899Z,14.63
2023-03-01T04:03:23.052Z,14.53
2023-03-01T04:05:52.396Z,14.77
2023-03-01T04:08:21.919Z,14.47
2023-03-01T04:10:51.669Z,14.63
2023-03-01T04:13:22.398Z,14.23
2023-03-01T04:15:51.515Z,14.13
2023-03-01T04:18:22.632Z,14.00
2023-03-01T04:20:52.930Z,14.80
2023-03-01T04:23:22.860Z,14.47
2023-03-01T04:25:56.462Z,14.80
2023-03-01T04:28:26.453Z,14.87
2023-03-01T04:30:55.268Z,14.33
2023-03-01T04:33:25.453Z,15.20
2023-03-01T04:35:53.713Z,14.30
2023-03-01T04:38:23.199Z,15.47
2023-03-01T04:40:51.498Z,15.47
2023-03-01T04:43:19.356Z,14.63
2023-03-01T04:45:50.320Z,14.53
2023-03-01T04:48:18.081Z,14.27
2023-03-01T04:50:48.124Z,14.93
2023-03-01T04:53:16.329Z,14.50
2023-03-01T04:55:44.705Z,14.70
2023-03-01T04:58:12.728Z,14.00
2023-03-01T05:00:40.537Z,14.93
2023-03-01T05:03:08.389Z,14.57
2023-03-01T05:05:38.276Z,14.93
2023-03-01T05:08:08.973Z,15.97
2023-03-01T05:10:39.721Z,15.23
2023-03-01T05:13:08.454Z,14.83
2023-03-01T05:15:37.501Z,14.90
2023-03-01T05:18:08.162Z,15.83
2023-03-01T05:20:37.184Z,14.07
2023-03-01T05:23:08.071Z,14.37
2023-03-01T05:25:41.178Z,14.87
2023-03-01T05:28:14.171Z,16.23
2023-03-01T05:30:43.962Z,15.53
2023-03-01T05:33:14.295Z,14.23
2023-03-01T05:35:43.365Z,15.30
2023-03-01T05:38:14.335Z,14.87
2023-03-01T05:40:44.552Z,14.80
2023-03-01T05:43:13.834Z,14.87
2023-03-01T05:45:42.958Z,16.00
2023-03-01T05:48:13.354Z,16.37
2023-03-01T05:50:44.546Z,14.63
2023-03-01T05:53:13.971Z,15.07
2023-03-01T05:55:44.755Z,14.87
2023-03-01T05:58:16.092Z,15.67
2023-03-01T06:00:45.317Z,15.53
2023-03-01T06:03:14.533Z,14.93
2023-03-01T06:05:42.810Z,15.43
2023-03-01T06:08:12.591Z,14.13
2023-03-01T06:10:41.541Z,16.73
2023-03-01T06:13:11.076Z,16.37
2023-03-01T06:15:39.090Z,15.13
2023-03-01T06:18:06.972Z,16.07
2023-03-01T06:20:34.842Z,14.77
2023-03-01T06:23:03.910Z,14.67
2023-03-01T06:25:32.064Z,16.17
2023-03-01T06:28:00.084Z,16.47
2023-03-01T06:30:29.226Z,14.17
2023-03-01T06:33:02.257Z,14.73
2023-03-01T06:35:31.596Z,15.60
2023-03-01T06:38:01.524Z,15.30
2023-03-01T06:40:29.811Z,16.13
2023-03-01T06:42:57.596Z,14.63
2023-03-01T06:45:27.304Z,19.20
2023-03-01T06:48:03.650Z,15.73
2023-03-01T06:50:33.304Z,15.43
2023-03-01T06:53:01.975Z,16.47
2023-03-01T06:55:30.908Z,15.80
2023-03-01T06:58:00.049Z,15.63
2023-03-01T07:00:29.907Z,16.70
2023-03-01T07:03:02.899Z,15.93
2023-03-01T07:05:31.574Z,14.50
2023-03-01T07:07:59.533Z,16.43
2023-03-01T07:10:27.342Z,14.30
2023-03-01T07:12:57.052Z,14.87
2023-03-01T07:15:28.301Z,15.87
2023-03-01T07:17:56.389Z,15.63
2023-03-01T07:20:28.386Z,15.33
2023-03-01T07:22:57.429Z,15.30
2023-03-01T07:25:26.264Z,15.23
2023-03-01T07:27:55.974Z,14.90
2023-03-01T07:30:26.733Z,15.83
2023-03-01T07:32:55.800Z,15.47
2023-03-01T07:35:27.085Z,14.90
2023-03-01T07:37:55.195Z,16.63
2023-03-01T07:40:23.019Z,15.27
2023-03-01T07:42:50.869Z,13.80
2023-03-01T07:45:18.888Z,15.17
2023-03-01T07:47:46.739Z,16.67
2023-03-01T07:50:14.695Z,15.23
2023-03-01T07:52:46.803Z,15.27
2023-03-01T07:55:14.810Z,15.00
2023-03-01T07:57:42.701Z,15.80
2023-03-01T08:00:14.097Z,17.40
2023-03-01T08:02:42.910Z,15.30
2023-03-01T08:05:12.988Z,15.63
2023-03-01T08:07:44.955Z,15.20
2023-03-01T08:10:13.832Z,16.33
2023-03-01T08:12:42.456Z,16.43
2023-03-01T08:15:11.786Z,16.70
2023-03-01T08:17:40.400Z,16.40
2023-03-01T08:20:08.920Z,15.27
2023-03-01T08:22:36.911Z,15.00
2023-03-01T08:25:06.930Z,16.10
2023-03-01T08:27:34.712Z,16.00
2023-03-01T08:30:02.669Z,15.90
2023-03-01T08:32:30.595Z,16.47
2023-03-01T08:34:58.623Z,16.23
2023-03-01T08:37:28.796Z,16.27
2023-03-01T08:39:56.972Z,16.03
2023-03-01T08:42:27.738Z,16.27
2023-03-01T08:44:56.033Z,16.27
2023-03-01T08:47:25.198Z,15.80
2023-03-01T08:49:53.753Z,15.37
2023-03-01T08:52:21.975Z,17.10
2023-03-01T08:54:49.957Z,17.40
2023-03-01T08:57:17.891Z,17.13
2023-03-01T08:59:47.088Z,15.80
2023-03-01T09:02:16.795Z,17.17
2023-03-01T09:04:45.266Z,16.10
2023-03-01T09:07:13.172Z,15.87
2023-03-01T09:09:42.912Z,16.70
2023-03-01T09:12:11.623Z,17.60
2023-03-01T09:14:39.966Z,16.07
2023-03-01T09:17:09.261Z,15.03
2023-03-01T09:19:37.430Z,15.47
2023-03-01T09:22:05.951Z,15.40
2023-03-01T09:24:33.754Z,15.83
2023-03-01T09:27:01.898Z,15.80
2023-03-01T09:29:30.527Z,15.80
2023-03-01T09:31:58.560Z,16.13
2023-03-01T09:34:27.949Z,17.27
2023-03-01T09:36:55.950Z,16.33
2023-03-01T09:39:23.794Z,17.17
2023-03-01T09:42:00.790Z,17.43
2023-03-01T09:44:34.246Z,16.90
2023-03-01T09:47:03.133Z,16.33
2023-03-01T09:49:35.221Z,17.50
2023-03-01T09:52:22.163Z,16.83
2023-03-01T09:54:55.282Z,16.73
2023-03-01T09:57:30.838Z,17.50
2023-03-01T10:00:08.250Z,16.73
2023-03-01T10:02:44.717Z,18.77
2023-03-01T10:05:31.566Z,17.43
2023-03-01T10:08:16.895Z,17.17
2023-03-01T10:10:48.127Z,17.20
2023-03-01T10:13:21.514Z,16.83
2023-03-01T10:15:56.347Z,16.80
2023-03-01T10:18:28.602Z,17.40
2023-03-01T10:21:00.686Z,17.17
2023-03-01T10:23:30.745Z,16.77
2023-03-01T10:26:19.817Z,17.03
2023-03-01T10:28:59.142Z,16.67
2023-03-01T10:31:37.965Z,16.00
2023-03-01T10:34:11.818Z,16.20
2023-03-01T10:36:43.405Z,16.93
2023-03-01T10:39:17.238Z,17.57
2023-03-01T10:41:59.332Z,17.37
2023-03-01T10:44:40.085Z,17.23
2023-03-01T10:47:15.924Z,16.53
2023-03-01T10:49:58.381Z,16.43
2023-03-01T10:52:31.240Z,17.30
2023-03-01T10:55:01.381Z,15.90
2023-03-01T10:57:42.794Z,17.07
2023-03-01T11:00:23.794Z,16.50
2023-03-01T11:03:03.595Z,17.40
2023-03-01T11:05:34.501Z,17.23
2023-03-01T11:08:05.266Z,17.63
2023-03-01T11:10:35.109Z,15.27
2023-03-01T11:13:15.732Z,16.07
2023-03-01T11:15:44.365Z,15.30
2023-03-01T11:18:25.099Z,15.97
2023-03-01T11:21:01.600Z,16.57
2023-03-01T11:23:32.806Z,15.47
2023-03-01T11:26:03.707Z,15.10
2023-03-01T11:28:32.168Z,15.33
2023-03-01T11:31:08.646Z,15.67
2023-03-01T11:33:43.161Z,15.57
2023-03-01T11:36:18.660Z,15.73
2023-03-01T11:38:48.257Z,16.50
2023-03-01T11:41:19.501Z,15.27
2023-03-01T11:43:53.074Z,15.50
2023-03-01T11:46:40.113Z,14.83
2023-03-01T11:49:21.128Z,16.23
2023-03-01T11:51:56.455Z,16.50
2023-03-01T11:54:38.016Z,15.43
2023-03-01T11:57:16.372Z,15.17
2023-03-01T12:00:01.165Z,15.30
2023-03-01T12:02:59.081Z,15.93
2023-03-01T12:05:49.912Z,15.20
2023-03-01T12:08:26.380Z,15.53
2023-03-01T12:11:05.692Z,15.47
2023-03-01T12:13:54.235Z,14.70
2023-03-01T12:16:39.225Z,15.17
2023-03-01T12:19:23.570Z,14.60
2023-03-01T12:22:10.418Z,14.50
2023-03-01T12:24:56.297Z,15.40
2023-03-01T12:27:45.373Z,14.60
2023-03-01T12:30:27.855Z,15.33
2023-03-01T12:33:10.114Z,15.90
2023-03-01T12:35:50.054Z,15.97
2023-03-01T12:38:35.043Z,14.43
2023-03-01T12:41:30.251Z,14.53
2023-03-01T12:44:15.354Z,14.83
2023-03-01T12:46:54.170Z,14.63
2023-03-01T12:49:27.017Z,14.37
2023-03-01T12:52:01.592Z,14.03
2023-03-01T12:54:32.932Z,15.47
2023-03-01T12:57:08.333Z,13.47
2023-03-01T12:59:42.064Z,14.17
2023-03-01T13:02:17.795Z,13.60
2023-03-01T13:05:09.436Z,13.77
2023-03-01T13:07:43.939Z,14.37
2023-03-01T13:10:24.779Z,14.07
2023-03-01T13:13:05.107Z,13.00
2023-03-01T13:15:36.807Z,13.13
2023-03-01T13:18:06.915Z,12.60
2023-03-01T13:20:49.024Z,13.87
2023-03-01T13:23:27.576Z,13.43
2023-03-01T13:26:16.625Z,12.70
2023-03-01T13:29:02.445Z,13.43
2023-03-01T13:32:08.068Z,13.77
2023-03-01T13:34:50.797Z,12.90
2023-03-01T13:37:38.589Z,13.37
2023-03-01T13:40:43.204Z,14.00
2023-03-01T13:43:34.508Z,12.40
2023-03-01T13:46:04.039Z,11.80
2023-03-01T13:48:35.330Z,12.90
2023-03-01T13:51:06.821Z,14.70
2023-03-01T13:53:39.446Z,14.10
2023-03-01T13:56:11.251Z,13.43
2023-03-01T13:58:54.490Z,14.53
2023-03-01T14:01:25.586Z,13.63
2023-03-01T14:03:55.460Z,13.80
2023-03-01T14:06:25.763Z,14.57
2023-03-01T14:09:04.435Z,14.37
2023-03-01T14:12:05.219Z,13.97
2023-03-01T14:14:50.991Z,13.70
2023-03-01T14:17:49.948Z,14.20
2023-03-01T14:20:22.815Z,14.30
2023-03-01T14:22:54.333Z,14.23
2023-03-01T14:25:27.285Z,15.10
2023-03-01T14:28:04.548Z,13.57
2023-03-01T14:30:37.389Z,14.17
2023-03-01T14:33:07.603Z,14.50
2023-03-01T14:35:38.211Z,15.63
2023-03-01T14:38:06.120Z,14.20
2023-03-01T14:40:36.222Z,14.30
2023-03-01T14:43:11.777Z,14.70
2023-03-01T14:45:39.746Z,14.63
2023-03-01T14:48:09.436Z,14.50
2023-03-01T14:50:44.408Z,14.73
2023-03-01T14:53:19.960Z,13.90
2023-03-01T14:55:52.912Z,15.77
2023-03-01T14:58:23.639Z,14.63
2023-03-01T15:00:54.227Z,14.30
2023-03-01T15:03:35.162Z,14.97
2023-03-01T15:06:06.414Z,14.80
2023-03-01T15:08:35.919Z,15.20
2023-03-01T15:11:09.051Z,14.37
2023-03-01T15:13:37.685Z,14.43
2023-03-01T15:16:11.292Z,15.00
2023-03-01T15:18:40.329Z,15.87
2023-03-01T15:21:12.239Z,15.40
2023-03-01T15:23:42.083Z,15.30
2023-03-01T15:26:30.730Z,15.50
2023-03-01T15:29:01.288Z,14.37
2023-03-01T15:31:39.826Z,15.10
2023-03-01T15:34:24.837Z,16.93
2023-03-01T15:36:56.145Z,14.90
2023-03-01T15:39:39.942Z,15.17
2023-03-01T15:42:12.266Z,15.60
2023-03-01T15:44:44.331Z,15.50
2023-03-01T15:47:27.926Z,15.87
2023-03-01T15:49:57.303Z,15.90
2023-03-01T15:52:30.780Z,14.70
2023-03-01T15:55:04.581Z,16.17
2023-03-01T15:57:32.393Z,15.87
2023-03-01T16:00:00.419Z,15.07
2023-03-01T16:02:28.301Z,15.20
2023-03-01T16:04:57.271Z,15.93
2023-03-01T16:07:25.415Z,14.93
2023-03-01T16:09:54.606Z,15.77
2023-03-01T16:12:22.517Z,15.63
2023-03-01T16:14:50.545Z,14.60
2023-03-01T16:17:18.526Z,14.87
2023-03-01T16:19:46.289Z,15.00
2023-03-01T16:22:14.121Z,15.10
2023-03-01T16:24:42.433Z,14.80
2023-03-01T16:27:11.832Z,15.17
2023-03-01T16:29:39.613Z,15.93
2023-03-01T16:32:07.650Z,15.27
2023-03-01T16:34:35.818Z,16.50
2023-03-01T16:37:03.662Z,15.23
2023-03-01T16:39:31.518Z,15.03
2023-03-01T16:42:02.227Z,15.00
2023-03-01T16:44:31.711Z,15.13
2023-03-01T16:46:59.512Z,15.47
2023-03-01T16:49:27.372Z,15.57
2023-03-01T16:51:56.114Z,15.27
2023-03-01T16:54:23.903Z,15.10
2023-03-01T16:56:51.672Z,15.43
2023-03-01T16:59:20.362Z,14.43
2023-03-01T17:01:49.540Z,15.20
2023-03-01T17:04:18.714Z,13.80
2023-03-01T17:06:47.800Z,15.07
2023-03-01T17:09:17.709Z,13.43
2023-03-01T17:11:45.692Z,13.87
2023-03-01T17:14:13.477Z,15.80
2023-03-01T17:16:41.278Z,14.67
2023-03-01T17:19:10.700Z,14.23
2023-03-01T17:21:38.732Z,14.47
2023-03-01T17:24:06.799Z,15.03
2023-03-01T17:26:34.568Z,14.33
2023-03-01T17:29:03.824Z,18.87
2023-03-01T17:31:32.288Z,19.13
2023-03-01T17:34:01.740Z,16.63
2023-03-01T17:36:33.573Z,15.13
2023-03-01T17:39:01.429Z,14.50
2023-03-01T17:41:29.555Z,16.37
2023-03-01T17:43:57.492Z,16.33
2023-03-01T17:46:26.926Z,16.13
2023-03-01T17:48:54.771Z,16.43
2023-03-01T17:51:23.164Z,16.70
2023-03-01T17:53:52.278Z,16.10
2023-03-01T17:56:20.139Z,15.43
2023-03-01T17:58:47.866Z,16.93
2023-03-01T18:01:17.921Z,15.47
2023-03-01T18:03:47.557Z,14.97
2023-03-01T18:06:18.573Z,15.50
2023-03-01T18:08:48.950Z,14.93
2023-03-01T18:11:18.984Z,14.93
2023-03-01T18:13:47.837Z,15.83
2023-03-01T18:16:17.349Z,16.40
2023-03-01T18:18:46.128Z,16.13
2023-03-01T18:21:15.359Z,15.63
2023-03-01T18:23:43.356Z,15.57
2023-03-01T18:26:15.675Z,15.60
2023-03-01T18:28:47.244Z,16.83
2023-03-01T18:31:18.417Z,15.73
2023-03-01T18:33:46.782Z,17.67
2023-03-01T18:36:21.607Z,17.70
2023-03-01T18:38:49.729Z,17.50
2023-03-01T18:41:17.928Z,16.70
2023-03-01T18:43:47.068Z,17.03
2023-03-01T18:46:15.003Z,18.60
2023-03-01T18:48:42.972Z,16.67
2023-03-01T18:51:13.150Z,18.27
2023-03-01T18:53:41.266Z,17.93
2023-03-01T18:56:09.876Z,18.33
2023-03-01T18:58:38.450Z,17.80
2023-03-01T19:01:13.327Z,17.63
2023-03-01T19:03:41.140Z,16.97
2023-03-01T19:06:09.083Z,17.47
2023-03-01T19:08:37.125Z,17.30
2023-03-01T19:11:06.639Z,15.87
2023-03-01T19:13:37.424Z,16.80
2023-03-01T19:16:08.838Z,15.83
2023-03-01T19:18:37.137Z,16.23
2023-03-01T19:21:06.018Z,16.30
2023-03-01T19:23:35.050Z,16.90
2023-03-01T19:26:04.447Z,17.50
2023-03-01T19:28:33.016Z,16.87
2023-03-01T19:31:02.451Z,17.13
2023-03-01T19:33:34.051Z,16.40
2023-03-01T19:36:02.555Z,16.20
2023-03-01T19:38:30.855Z,17.53
2023-03-01T19:40:58.915Z,17.13
2023-03-01T19:43:26.763Z,16.00
2023-03-01T19:45:56.161Z,17.03
2023-03-01T19:48:24.668Z,17.37
2023-03-01T19:50:54.396Z,16.40
2023-03-01T19:53:22.853Z,18.03
2023-03-01T19:55:53.026Z,18.10
2023-03-01T19:58:21.263Z,18.27
2023-03-01T20:00:49.468Z,18.47
2023-03-01T20:03:18.083Z,18.90
2023-03-01T20:05:46.644Z,20.23
2023-03-01T20:08:16.078Z,19.23
2023-03-01T20:10:44.310Z,18.57
2023-03-01T20:13:12.461Z,19.60
2023-03-01T20:15:42.717Z,18.73
2023-03-01T20:18:11.848Z,19.10
2023-03-01T20:20:39.621Z,18.37
2023-03-01T20:23:07.455Z,19.63
2023-03-01T20:25:37.522Z,20.03
2023-03-01T20:28:06.228Z,19.60
2023-03-01T20:30:34.044Z,19.87
2023-03-01T20:33:01.776Z,20.00
2023-03-01T20:35:32.677Z,20.60
2023-03-01T20:38:00.944Z,20.00
2023-03-01T20:40:28.859Z,20.03
2023-03-01T20:42:58.695Z,17.63
2023-03-01T20:45:28.271Z,21.67
2023-03-01T20:47:56.306Z,24.17
2023-03-01T20:50:24.052Z,21.33
2023-03-01T20:52:51.923Z,19.13
2023-03-01T20:55:20.107Z,20.70
2023-03-01T20:57:47.940Z,20.73
2023-03-01T21:00:18.385Z,21.80
2023-03-01T21:02:46.231Z,20.90
2023-03-01T21:05:13.978Z,17.97
2023-03-01T21:07:42.860Z,17.07
2023-03-01T21:10:12.258Z,16.67
2023-03-01T21:12:40.187Z,17.60
2023-03-01T21:15:11.247Z,17.93
2023-03-01T21:17:40.621Z,17.43
2023-03-01T21:20:09.772Z,18.40
2023-03-01T21:22:37.647Z,18.43
2023-03-01T21:25:06.146Z,16.27
2023-03-01T21:27:37.512Z,16.43
2023-03-01T21:30:06.374Z,16.40
2023-03-01T21:32:34.248Z,15.60
2023-03-01T21:35:03.517Z,15.43
2023-03-01T21:37:32.283Z,14.97
2023-03-01T21:40:00.397Z,15.10
2023-03-01T21:42:28.115Z,15.70
2023-03-01T21:44:55.894Z,15.20
2023-03-01T21:47:23.759Z,15.27
2023-03-01T21:49:51.580Z,15.97
2023-03-01T21:52:20.811Z,16.67
2023-03-01T21:54:51.990Z,16.67
2023-03-01T21:57:20.110Z,15.73
2023-03-01T21:59:48.042Z,15.10
2023-03-01T22:02:15.994Z,15.90
2023-03-01T22:04:43.862Z,16.00
2023-03-01T22:07:11.756Z,15.93
2023-03-01T22:09:41.008Z,16.50
2023-03-01T22:12:08.823Z,17.00
2023-03-01T22:14:36.655Z,16.20
2023-03-01T22:17:04.538Z,16.97
2023-03-01T22:19:32.434Z,17.37
2023-03-01T22:22:00.207Z,17.47
2023-03-01T22:24:29.255Z,16.53
2023-03-01T22:26:58.461Z,17.00
2023-03-01T22:29:29.031Z,17.47
2023-03-01T22:31:58.330Z,16.93
2023-03-01T22:34:26.543Z,17.00
2023-03-01T22:36:54.446Z,16.43
2023-03-01T22:39:23.245Z,17.07
2023-03-01T22:41:51.430Z,16.23
2023-03-01T22:44:22.894Z,17.63
2023-03-01T22:46:51.361Z,16.17
2023-03-01T22:49:19.404Z,18.43
2023-03-01T22:51:48.201Z,16.80
2023-03-01T22:54:17.901Z,17.37
2023-03-01T22:56:46.365Z,15.70
2023-03-01T22:59:16.243Z,16.10
2023-03-01T23:01:47.752Z,17.07
2023-03-01T23:04:18.260Z,16.07
2023-03-01T23:06:54.076Z,16.80
2023-03-01T23:09:24.608Z,15.20
2023-03-01T23:11:53.149Z,16.33
2023-03-01T23:14:21.470Z,17.60
2023-03-01T23:16:51.711Z,16.97
2023-03-01T23:19:20.310Z,16.63
2023-03-01T23:21:50.104Z,17.03
2023-03-01T23:24:19.720Z,16.63
2023-03-01T23:26:51.765Z,19.33
2023-03-01T23:29:20.729Z,25.30
2023-03-01T23:31:50.651Z,31.87
2023-03-01T23:34:18.992Z,18.53
2023-03-01T23:36:46.913Z,17.30
2023-03-01T23:39:15.339Z,18.20
2023-03-01T23:41:43.235Z,17.77
2023-03-01T23:44:16.280Z,17.87
2023-03-01T23:46:45.777Z,17.83
2023-03-01T23:49:16.868Z,17.47
2023-03-01T23:51:47.628Z,16.70
2023-03-01T23:54:17.767Z,16.47
2023-03-01T23:56:46.997Z,17.67
2023-03-01T23:59:17.307Z,18.00
